sensor_id;sensor_type;location;lat;lon;timestamp;P1;durP1;ratioP1;P2;durP2;ratioP2
76063;SDS011;64762;52.006;8.424;2023-02-28T00:00:03;4.40;;;1.90;;
76063;SDS011;64762;52.006;8.424;2023-02-28T00:02:36;4.65;;;2.13;;
76063;SDS011;64762;52.006;8.424;2023-02-28T00:05:02;4.40;;;1.90;;
76063;SDS011;64762;52.006;8.424;2023-02-28T00:07:28;6.18;;;2.03;;
76063;SDS011;64762;52.006;8.424;2023-02-28T00:09:54;7.80;;;2.15;;
76063;SDS011;64762;52.006;8.424;2023-02-28T00:12:19;4.70;;;2.17;;
76063;SDS011;64762;52.006;8.424;2023-02-28T00:14:45;5.07;;;1.77;;
76063;SDS011;64762;52.006;8.424;2023-02-28T00:17:10;7.07;;;1.90;;
76063;SDS011;64762;52.006;8.424;2023-02-28T00:19:35;5.67;;;1.73;;
76063;SDS011;64762;52.006;8.424;2023-02-28T00:22:01;4.90;;;1.73;;
76063;SDS011;64762;52.006;8.424;2023-02-28T00:24:26;5.50;;;1.50;;
76063;SDS011;64762;52.006;8.424;2023-02-28T00:26:51;5.37;;;2.10;;
76063;SDS011;64762;52.006;8.424;2023-02-28T00:29:16;8.17;;;2.10;;
76063;SDS011;64762;52.006;8.424;2023-02-28T00:31:42;5.97;;;2.13;;
76063;SDS011;64762;52.006;8.424;2023-02-28T00:34:07;7.00;;;2.70;;
76063;SDS011;64762;52.006;8.424;2023-02-28T00:36:32;5.00;;;1.70;;
76063;SDS011;64762;52.006;8.424;2023-02-28T00:38:58;4.83;;;1.73;;
76063;SDS011;64762;52.006;8.424;2023-02-28T00:41:23;8.67;;;1.90;;
76063;SDS011;64762;52.006;8.424;2023-02-28T00:43:48;5.70;;;2.20;;
76063;SDS011;64762;52.006;8.424;2023-02-28T00:46:13;6.03;;;2.57;;
76063;SDS011;64762;52.006;8.424;2023-02-28T00:48:39;7.87;;;2.60;;
76063;SDS011;64762;52.006;8.424;2023-02-28T00:51:04;4.37;;;1.97;;
76063;SDS011;64762;52.006;8.424;2023-02-28T00:53:30;6.40;;;2.38;;
76063;SDS011;64762;52.006;8.424;2023-02-28T00:55:55;7.28;;;2.30;;
76063;SDS011;64762;52.006;8.424;2023-02-28T00:58:20;6.90;;;2.23;;
76063;SDS011;64762;52.006;8.424;2023-02-28T01:00:46;6.63;;;2.67;;
76063;SDS011;64762;52.006;8.424;2023-02-28T01:03:13;5.45;;;2.85;;
76063;SDS011;64762;52.006;8.424;2023-02-28T01:05:39;6.13;;;2.55;;
76063;SDS011;64762;52.006;8.424;2023-02-28T01:08:05;6.35;;;2.60;;
76063;SDS011;64762;52.006;8.424;2023-02-28T01:10:31;8.40;;;2.50;;
76063;SDS011;64762;52.006;8.424;2023-02-28T01:12:56;9.33;;;3.10;;
76063;SDS011;64762;52.006;8.424;2023-02-28T01:15:21;7.93;;;2.95;;
76063;SDS011;64762;52.006;8.424;2023-02-28T01:17:47;7.87;;;3.17;;
76063;SDS011;64762;52.006;8.424;2023-02-28T01:20:12;7.93;;;2.93;;
76063;SDS011;64762;52.006;8.424;2023-02-28T01:22:37;8.05;;;2.47;;
76063;SDS011;64762;52.006;8.424;2023-02-28T01:25:03;6.13;;;2.67;;
76063;SDS011;64762;52.006;8.424;2023-02-28T01:27:28;5.70;;;2.78;;
76063;SDS011;64762;52.006;8.424;2023-02-28T01:29:54;5.60;;;2.45;;
76063;SDS011;64762;52.006;8.424;2023-02-28T01:32:19;5.67;;;2.57;;
76063;SDS011;64762;52.006;8.424;2023-02-28T01:34:44;7.47;;;2.60;;
76063;SDS011;64762;52.006;8.424;2023-02-28T01:37:10;5.63;;;2.83;;
76063;SDS011;64762;52.006;8.424;2023-02-28T01:39:35;9.57;;;3.60;;
76063;SDS011;64762;52.006;8.424;2023-02-28T01:42:00;5.90;;;2.70;;
76063;SDS011;64762;52.006;8.424;2023-02-28T01:47:30;7.22;;;3.10;;
76063;SDS011;64762;52.006;8.424;2023-02-28T01:49:58;6.45;;;3.03;;
76063;SDS011;64762;52.006;8.424;2023-02-28T01:52:24;9.90;;;2.60;;
76063;SDS011;64762;52.006;8.424;2023-02-28T01:54:51;7.43;;;3.22;;
76063;SDS011;64762;52.006;8.424;2023-02-28T01:57:18;8.20;;;3.38;;
76063;SDS011;64762;52.006;8.424;2023-02-28T01:59:51;6.10;;;3.20;;
76063;SDS011;64762;52.006;8.424;2023-02-28T02:02:19;9.20;;;3.25;;
76063;SDS011;64762;52.006;8.424;2023-02-28T02:05:07;9.60;;;3.40;;
76063;SDS011;64762;52.006;8.424;2023-02-28T02:07:33;11.13;;;3.15;;
76063;SDS011;64762;52.006;8.424;2023-02-28T02:10:02;5.95;;;2.40;;
76063;SDS011;64762;52.006;8.424;2023-02-28T02:15:53;9.18;;;3.10;;
76063;SDS011;64762;52.006;8.424;2023-02-28T02:18:46;9.68;;;3.58;;
76063;SDS011;64762;52.006;8.424;2023-02-28T02:23:58;8.38;;;3.35;;
76063;SDS011;64762;52.006;8.424;2023-02-28T02:29:32;6.40;;;2.92;;
76063;SDS011;64762;52.006;8.424;2023-02-28T02:37:51;7.32;;;3.15;;
76063;SDS011;64762;52.006;8.424;2023-02-28T02:40:29;8.15;;;3.72;;
76063;SDS011;64762;52.006;8.424;2023-02-28T02:42:59;9.63;;;3.80;;
76063;SDS011;64762;52.006;8.424;2023-02-28T02:45:44;9.63;;;3.60;;
76063;SDS011;64762;52.006;8.424;2023-02-28T02:48:13;8.55;;;2.92;;
76063;SDS011;64762;52.006;8.424;2023-02-28T02:50:52;7.03;;;3.15;;
76063;SDS011;64762;52.006;8.424;2023-02-28T02:53:24;8.77;;;3.83;;
76063;SDS011;64762;52.006;8.424;2023-02-28T02:55:53;9.13;;;3.45;;
76063;SDS011;64762;52.006;8.424;2023-02-28T02:58:21;7.50;;;3.22;;
76063;SDS011;64762;52.006;8.424;2023-02-28T03:00:53;6.97;;;2.90;;
76063;SDS011;64762;52.006;8.424;2023-02-28T03:03:21;10.23;;;3.60;;
76063;SDS011;64762;52.006;8.424;2023-02-28T03:05:53;6.82;;;3.08;;
76063;SDS011;64762;52.006;8.424;2023-02-28T03:08:19;6.40;;;3.35;;
76063;SDS011;64762;52.006;8.424;2023-02-28T03:10:45;8.68;;;3.60;;
76063;SDS011;64762;52.006;8.424;2023-02-28T03:24:53;7.00;;;2.80;;
76063;SDS011;64762;52.006;8.424;2023-02-28T03:27:31;6.32;;;3.17;;
76063;SDS011;64762;52.006;8.424;2023-02-28T03:30:06;6.95;;;2.95;;
76063;SDS011;64762;52.006;8.424;2023-02-28T03:32:37;8.10;;;3.10;;
76063;SDS011;64762;52.006;8.424;2023-02-28T03:37:40;6.07;;;2.95;;
76063;SDS011;64762;52.006;8.424;2023-02-28T03:40:14;7.97;;;2.58;;
76063;SDS011;64762;52.006;8.424;2023-02-28T03:42:43;6.82;;;3.08;;
76063;SDS011;64762;52.006;8.424;2023-02-28T03:45:14;7.05;;;2.80;;
76063;SDS011;64762;52.006;8.424;2023-02-28T03:50:11;7.32;;;2.80;;
76063;SDS011;64762;52.006;8.424;2023-02-28T03:52:42;11.13;;;3.20;;
76063;SDS011;64762;52.006;8.424;2023-02-28T03:55:13;7.00;;;2.67;;
76063;SDS011;64762;52.006;8.424;2023-02-28T03:58:00;5.25;;;2.65;;
76063;SDS011;64762;52.006;8.424;2023-02-28T04:00:39;7.13;;;2.58;;
76063;SDS011;64762;52.006;8.424;2023-02-28T04:03:06;7.03;;;3.05;;
76063;SDS011;64762;52.006;8.424;2023-02-28T04:05:31;8.23;;;2.83;;
76063;SDS011;64762;52.006;8.424;2023-02-28T04:08:04;5.45;;;2.22;;
76063;SDS011;64762;52.006;8.424;2023-02-28T04:10:30;4.50;;;2.38;;
76063;SDS011;64762;52.006;8.424;2023-02-28T04:12:55;6.77;;;2.70;;
76063;SDS011;64762;52.006;8.424;2023-02-28T04:15:21;7.73;;;2.40;;
76063;SDS011;64762;52.006;8.424;2023-02-28T04:17:48;5.90;;;2.15;;
76063;SDS011;64762;52.006;8.424;2023-02-28T04:20:13;9.60;;;2.63;;
76063;SDS011;64762;52.006;8.424;2023-02-28T04:22:38;8.53;;;2.57;;
76063;SDS011;64762;52.006;8.424;2023-02-28T04:25:04;5.20;;;2.30;;
76063;SDS011;64762;52.006;8.424;2023-02-28T04:27:30;4.78;;;1.90;;
76063;SDS011;64762;52.006;8.424;2023-02-28T04:29:55;5.17;;;2.10;;
76063;SDS011;64762;52.006;8.424;2023-02-28T04:32:21;4.90;;;1.90;;
76063;SDS011;64762;52.006;8.424;2023-02-28T04:34:46;5.43;;;2.13;;
76063;SDS011;64762;52.006;8.424;2023-02-28T04:37:11;4.30;;;1.80;;
76063;SDS011;64762;52.006;8.424;2023-02-28T04:39:37;4.40;;;2.13;;
76063;SDS011;64762;52.006;8.424;2023-02-28T04:42:03;5.15;;;2.05;;
76063;SDS011;64762;52.006;8.424;2023-02-28T04:44:28;6.70;;;2.40;;
76063;SDS011;64762;52.006;8.424;2023-02-28T04:46:53;5.67;;;2.00;;
76063;SDS011;64762;52.006;8.424;2023-02-28T04:49:19;5.57;;;2.23;;
76063;SDS011;64762;52.006;8.424;2023-02-28T04:51:44;5.30;;;2.43;;
76063;SDS011;64762;52.006;8.424;2023-02-28T04:54:09;4.93;;;2.37;;
76063;SDS011;64762;52.006;8.424;2023-02-28T04:56:35;6.20;;;2.07;;
76063;SDS011;64762;52.006;8.424;2023-02-28T04:59:00;6.40;;;2.00;;
76063;SDS011;64762;52.006;8.424;2023-02-28T05:01:27;5.43;;;2.43;;
76063;SDS011;64762;52.006;8.424;2023-02-28T05:03:54;4.70;;;2.40;;
76063;SDS011;64762;52.006;8.424;2023-02-28T05:06:22;4.80;;;2.20;;
76063;SDS011;64762;52.006;8.424;2023-02-28T05:08:51;8.10;;;2.80;;
76063;SDS011;64762;52.006;8.424;2023-02-28T05:11:20;6.53;;;2.42;;
76063;SDS011;64762;52.006;8.424;2023-02-28T05:13:48;6.22;;;2.58;;
76063;SDS011;64762;52.006;8.424;2023-02-28T05:16:14;7.53;;;2.33;;
76063;SDS011;64762;52.006;8.424;2023-02-28T05:18:40;5.10;;;2.10;;
76063;SDS011;64762;52.006;8.424;2023-02-28T05:21:05;7.70;;;2.67;;
76063;SDS011;64762;52.006;8.424;2023-02-28T05:23:31;5.40;;;2.47;;
76063;SDS011;64762;52.006;8.424;2023-02-28T05:25:56;10.23;;;2.10;;
76063;SDS011;64762;52.006;8.424;2023-02-28T05:28:22;5.70;;;2.42;;
76063;SDS011;64762;52.006;8.424;2023-02-28T05:30:47;5.35;;;2.10;;
76063;SDS011;64762;52.006;8.424;2023-02-28T05:33:12;6.03;;;2.43;;
76063;SDS011;64762;52.006;8.424;2023-02-28T05:35:39;9.68;;;2.45;;
76063;SDS011;64762;52.006;8.424;2023-02-28T05:38:05;5.28;;;2.42;;
76063;SDS011;64762;52.006;8.424;2023-02-28T05:40:30;6.50;;;2.70;;
76063;SDS011;64762;52.006;8.424;2023-02-28T05:42:55;6.00;;;2.57;;
76063;SDS011;64762;52.006;8.424;2023-02-28T05:45:20;4.90;;;2.50;;
76063;SDS011;64762;52.006;8.424;2023-02-28T05:47:46;6.90;;;3.10;;
76063;SDS011;64762;52.006;8.424;2023-02-28T05:50:11;6.63;;;2.30;;
76063;SDS011;64762;52.006;8.424;2023-02-28T05:52:36;7.40;;;2.77;;
76063;SDS011;64762;52.006;8.424;2023-02-28T05:55:02;8.18;;;3.00;;
76063;SDS011;64762;52.006;8.424;2023-02-28T05:57:30;11.73;;;4.90;;
76063;SDS011;64762;52.006;8.424;2023-02-28T05:59:55;11.25;;;4.60;;
76063;SDS011;64762;52.006;8.424;2023-02-28T06:02:21;13.30;;;5.57;;
76063;SDS011;64762;52.006;8.424;2023-02-28T06:04:46;16.40;;;5.87;;
76063;SDS011;64762;52.006;8.424;2023-02-28T06:07:11;19.43;;;6.57;;
76063;SDS011;64762;52.006;8.424;2023-02-28T06:09:37;18.37;;;6.17;;
76063;SDS011;64762;52.006;8.424;2023-02-28T06:12:03;19.35;;;7.15;;
76063;SDS011;64762;52.006;8.424;2023-02-28T06:14:31;21.83;;;7.18;;
76063;SDS011;64762;52.006;8.424;2023-02-28T06:16:57;17.42;;;7.15;;
76063;SDS011;64762;52.006;8.424;2023-02-28T06:19:23;19.20;;;6.75;;
76063;SDS011;64762;52.006;8.424;2023-02-28T06:21:50;20.05;;;7.40;;
76063;SDS011;64762;52.006;8.424;2023-02-28T06:24:17;19.67;;;7.93;;
76063;SDS011;64762;52.006;8.424;2023-02-28T06:26:45;19.25;;;7.35;;
76063;SDS011;64762;52.006;8.424;2023-02-28T06:29:10;23.40;;;8.50;;
76063;SDS011;64762;52.006;8.424;2023-02-28T06:31:36;22.08;;;7.68;;
76063;SDS011;64762;52.006;8.424;2023-02-28T06:34:03;19.50;;;7.78;;
76063;SDS011;64762;52.006;8.424;2023-02-28T06:36:28;25.48;;;8.57;;
76063;SDS011;64762;52.006;8.424;2023-02-28T06:38:54;21.70;;;8.10;;
76063;SDS011;64762;52.006;8.424;2023-02-28T06:41:24;20.63;;;7.68;;
76063;SDS011;64762;52.006;8.424;2023-02-28T06:43:50;21.27;;;7.82;;
76063;SDS011;64762;52.006;8.424;2023-02-28T06:46:16;18.92;;;7.25;;
76063;SDS011;64762;52.006;8.424;2023-02-28T06:48:45;18.57;;;7.60;;
76063;SDS011;64762;52.006;8.424;2023-02-28T06:51:12;20.92;;;6.82;;
76063;SDS011;64762;52.006;8.424;2023-02-28T06:53:39;18.10;;;6.03;;
76063;SDS011;64762;52.006;8.424;2023-02-28T06:56:05;15.00;;;6.00;;
76063;SDS011;64762;52.006;8.424;2023-02-28T06:58:32;17.50;;;5.78;;
76063;SDS011;64762;52.006;8.424;2023-02-28T07:00:57;15.98;;;6.07;;
76063;SDS011;64762;52.006;8.424;2023-02-28T07:03:23;13.07;;;5.87;;
76063;SDS011;64762;52.006;8.424;2023-02-28T07:05:48;16.00;;;5.70;;
76063;SDS011;64762;52.006;8.424;2023-02-28T07:08:14;11.65;;;4.63;;
76063;SDS011;64762;52.006;8.424;2023-02-28T07:10:40;11.77;;;4.68;;
76063;SDS011;64762;52.006;8.424;2023-02-28T07:13:06;9.15;;;3.80;;
76063;SDS011;64762;52.006;8.424;2023-02-28T07:15:31;4.57;;;2.63;;
76063;SDS011;64762;52.006;8.424;2023-02-28T07:17:57;11.23;;;2.97;;
76063;SDS011;64762;52.006;8.424;2023-02-28T07:20:23;5.43;;;2.50;;
76063;SDS011;64762;52.006;8.424;2023-02-28T07:22:49;10.30;;;3.58;;
76063;SDS011;64762;52.006;8.424;2023-02-28T07:25:21;5.22;;;2.35;;
76063;SDS011;64762;52.006;8.424;2023-02-28T07:27:47;5.53;;;2.90;;
76063;SDS011;64762;52.006;8.424;2023-02-28T07:30:13;13.03;;;2.60;;
76063;SDS011;64762;52.006;8.424;2023-02-28T07:32:38;5.47;;;2.85;;
76063;SDS011;64762;52.006;8.424;2023-02-28T07:35:04;8.85;;;3.08;;
76063;SDS011;64762;52.006;8.424;2023-02-28T07:37:29;8.77;;;3.50;;
76063;SDS011;64762;52.006;8.424;2023-02-28T07:39:56;9.90;;;2.38;;
76063;SDS011;64762;52.006;8.424;2023-02-28T07:42:21;5.65;;;2.58;;
76063;SDS011;64762;52.006;8.424;2023-02-28T07:44:47;6.43;;;3.13;;
76063;SDS011;64762;52.006;8.424;2023-02-28T07:47:12;5.77;;;2.47;;
76063;SDS011;64762;52.006;8.424;2023-02-28T07:49:37;6.33;;;2.83;;
76063;SDS011;64762;52.006;8.424;2023-02-28T07:52:03;6.15;;;2.90;;
76063;SDS011;64762;52.006;8.424;2023-02-28T07:54:29;7.18;;;2.78;;
76063;SDS011;64762;52.006;8.424;2023-02-28T07:56:55;7.25;;;2.78;;
76063;SDS011;64762;52.006;8.424;2023-02-28T07:59:21;7.93;;;2.60;;
76063;SDS011;64762;52.006;8.424;2023-02-28T08:01:46;8.23;;;2.25;;
76063;SDS011;64762;52.006;8.424;2023-02-28T08:04:15;6.25;;;2.42;;
76063;SDS011;64762;52.006;8.424;2023-02-28T08:06:40;6.00;;;2.43;;
76063;SDS011;64762;52.006;8.424;2023-02-28T08:09:05;4.10;;;2.20;;
76063;SDS011;64762;52.006;8.424;2023-02-28T08:11:31;6.20;;;2.33;;
76063;SDS011;64762;52.006;8.424;2023-02-28T08:13:56;4.90;;;2.50;;
76063;SDS011;64762;52.006;8.424;2023-02-28T08:16:21;5.97;;;2.50;;
76063;SDS011;64762;52.006;8.424;2023-02-28T08:18:47;6.32;;;2.75;;
76063;SDS011;64762;52.006;8.424;2023-02-28T08:21:20;5.35;;;2.50;;
76063;SDS011;64762;52.006;8.424;2023-02-28T08:23:46;4.38;;;2.33;;
76063;SDS011;64762;52.006;8.424;2023-02-28T08:26:12;7.95;;;2.70;;
76063;SDS011;64762;52.006;8.424;2023-02-28T08:28:37;4.60;;;2.63;;
76063;SDS011;64762;52.006;8.424;2023-02-28T08:31:06;6.23;;;3.07;;
76063;SDS011;64762;52.006;8.424;2023-02-28T08:33:32;6.10;;;2.63;;
76063;SDS011;64762;52.006;8.424;2023-02-28T08:35:58;3.80;;;2.17;;
76063;SDS011;64762;52.006;8.424;2023-02-28T08:38:23;4.73;;;2.37;;
76063;SDS011;64762;52.006;8.424;2023-02-28T08:40:49;5.65;;;2.85;;
76063;SDS011;64762;52.006;8.424;2023-02-28T08:43:14;6.37;;;2.70;;
76063;SDS011;64762;52.006;8.424;2023-02-28T08:45:39;4.90;;;2.50;;
76063;SDS011;64762;52.006;8.424;2023-02-28T08:48:05;5.35;;;2.40;;
76063;SDS011;64762;52.006;8.424;2023-02-28T08:50:30;5.65;;;2.67;;
76063;SDS011;64762;52.006;8.424;2023-02-28T08:52:56;6.17;;;2.17;;
76063;SDS011;64762;52.006;8.424;2023-02-28T08:55:21;4.63;;;2.07;;
76063;SDS011;64762;52.006;8.424;2023-02-28T08:57:47;3.63;;;1.92;;
76063;SDS011;64762;52.006;8.424;2023-02-28T09:00:12;7.00;;;2.57;;
76063;SDS011;64762;52.006;8.424;2023-02-28T09:02:39;5.45;;;2.38;;
76063;SDS011;64762;52.006;8.424;2023-02-28T09:05:04;3.95;;;1.95;;
76063;SDS011;64762;52.006;8.424;2023-02-28T09:07:30;5.15;;;1.95;;
76063;SDS011;64762;52.006;8.424;2023-02-28T09:09:55;5.77;;;2.10;;
76063;SDS011;64762;52.006;8.424;2023-02-28T09:12:22;5.80;;;2.10;;
76063;SDS011;64762;52.006;8.424;2023-02-28T09:14:48;4.07;;;1.88;;
76063;SDS011;64762;52.006;8.424;2023-02-28T09:17:14;4.80;;;1.98;;
76063;SDS011;64762;52.006;8.424;2023-02-28T09:19:39;5.45;;;2.08;;
76063;SDS011;64762;52.006;8.424;2023-02-28T09:22:06;5.70;;;1.93;;
76063;SDS011;64762;52.006;8.424;2023-02-28T09:24:31;7.70;;;2.47;;
76063;SDS011;64762;52.006;8.424;2023-02-28T09:26:56;4.27;;;1.70;;
76063;SDS011;64762;52.006;8.424;2023-02-28T09:29:22;5.13;;;2.00;;
76063;SDS011;64762;52.006;8.424;2023-02-28T09:34:38;3.90;;;2.00;;
76063;SDS011;64762;52.006;8.424;2023-02-28T09:37:03;5.67;;;2.40;;
76063;SDS011;64762;52.006;8.424;2023-02-28T09:39:37;4.40;;;2.07;;
76063;SDS011;64762;52.006;8.424;2023-02-28T09:42:03;6.45;;;2.42;;
76063;SDS011;64762;52.006;8.424;2023-02-28T09:44:31;5.40;;;2.33;;
76063;SDS011;64762;52.006;8.424;2023-02-28T09:47:01;3.65;;;1.42;;
76063;SDS011;64762;52.006;8.424;2023-02-28T09:49:37;4.85;;;2.10;;
76063;SDS011;64762;52.006;8.424;2023-02-28T09:52:09;5.63;;;1.77;;
76063;SDS011;64762;52.006;8.424;2023-02-28T09:54:36;6.07;;;2.28;;
76063;SDS011;64762;52.006;8.424;2023-02-28T09:57:46;4.65;;;2.05;;
76063;SDS011;64762;52.006;8.424;2023-02-28T10:03:00;5.80;;;2.20;;
76063;SDS011;64762;52.006;8.424;2023-02-28T10:05:38;5.53;;;2.20;;
76063;SDS011;64762;52.006;8.424;2023-02-28T10:08:27;4.18;;;1.90;;
76063;SDS011;64762;52.006;8.424;2023-02-28T10:10:57;6.35;;;2.30;;
76063;SDS011;64762;52.006;8.424;2023-02-28T10:13:25;5.35;;;2.42;;
76063;SDS011;64762;52.006;8.424;2023-02-28T10:16:05;7.32;;;2.60;;
76063;SDS011;64762;52.006;8.424;2023-02-28T10:18:38;4.60;;;2.05;;
76063;SDS011;64762;52.006;8.424;2023-02-28T10:21:15;5.43;;;2.10;;
76063;SDS011;64762;52.006;8.424;2023-02-28T10:23:44;5.50;;;2.35;;
76063;SDS011;64762;52.006;8.424;2023-02-28T10:29:01;8.18;;;2.53;;
76063;SDS011;64762;52.006;8.424;2023-02-28T10:31:27;4.75;;;2.42;;
76063;SDS011;64762;52.006;8.424;2023-02-28T10:33:52;6.07;;;2.00;;
76063;SDS011;64762;52.006;8.424;2023-02-28T10:36:19;4.57;;;1.77;;
76063;SDS011;64762;52.006;8.424;2023-02-28T10:38:47;10.32;;;2.08;;
76063;SDS011;64762;52.006;8.424;2023-02-28T10:41:27;5.10;;;1.90;;
76063;SDS011;64762;52.006;8.424;2023-02-28T10:44:12;5.13;;;1.85;;
76063;SDS011;64762;52.006;8.424;2023-02-28T10:46:48;3.70;;;1.83;;
76063;SDS011;64762;52.006;8.424;2023-02-28T10:49:17;5.28;;;1.77;;
76063;SDS011;64762;52.006;8.424;2023-02-28T10:51:46;4.50;;;1.48;;
76063;SDS011;64762;52.006;8.424;2023-02-28T10:54:15;4.55;;;1.83;;
76063;SDS011;64762;52.006;8.424;2023-02-28T10:56:41;5.05;;;2.20;;
76063;SDS011;64762;52.006;8.424;2023-02-28T11:01:52;4.93;;;1.58;;
76063;SDS011;64762;52.006;8.424;2023-02-28T11:04:19;3.75;;;1.70;;
76063;SDS011;64762;52.006;8.424;2023-02-28T11:06:58;3.72;;;1.25;;
76063;SDS011;64762;52.006;8.424;2023-02-28T11:09:30;3.55;;;1.40;;
76063;SDS011;64762;52.006;8.424;2023-02-28T11:12:04;2.88;;;1.52;;
76063;SDS011;64762;52.006;8.424;2023-02-28T11:14:32;4.43;;;1.48;;
76063;SDS011;64762;52.006;8.424;2023-02-28T11:17:10;3.30;;;1.35;;
76063;SDS011;64762;52.006;8.424;2023-02-28T11:19:39;3.83;;;1.60;;
76063;SDS011;64762;52.006;8.424;2023-02-28T11:22:09;3.72;;;1.50;;
76063;SDS011;64762;52.006;8.424;2023-02-28T11:24:42;2.50;;;0.98;;
76063;SDS011;64762;52.006;8.424;2023-02-28T11:27:26;6.10;;;1.50;;
76063;SDS011;64762;52.006;8.424;2023-02-28T11:30:11;5.93;;;1.50;;
76063;SDS011;64762;52.006;8.424;2023-02-28T11:32:49;5.93;;;1.80;;
76063;SDS011;64762;52.006;8.424;2023-02-28T11:35:16;4.68;;;1.40;;
76063;SDS011;64762;52.006;8.424;2023-02-28T11:37:47;6.35;;;1.85;;
76063;SDS011;64762;52.006;8.424;2023-02-28T11:40:14;3.45;;;1.42;;
76063;SDS011;64762;52.006;8.424;2023-02-28T11:42:47;4.05;;;1.27;;
76063;SDS011;64762;52.006;8.424;2023-02-28T11:48:14;4.20;;;1.60;;
76063;SDS011;64762;52.006;8.424;2023-02-28T12:01:52;3.47;;;1.48;;
76063;SDS011;64762;52.006;8.424;2023-02-28T12:07:07;4.03;;;1.65;;
76063;SDS011;64762;52.006;8.424;2023-02-28T12:18:12;5.65;;;1.70;;
76063;SDS011;64762;52.006;8.424;2023-02-28T12:20:46;12.65;;;2.25;;
76063;SDS011;64762;52.006;8.424;2023-02-28T12:23:26;3.45;;;1.58;;
76063;SDS011;64762;52.006;8.424;2023-02-28T12:26:38;6.45;;;2.78;;
76063;SDS011;64762;52.006;8.424;2023-02-28T12:31:53;3.78;;;1.60;;
76063;SDS011;64762;52.006;8.424;2023-02-28T12:34:22;3.88;;;1.77;;
76063;SDS011;64762;52.006;8.424;2023-02-28T12:37:10;5.03;;;2.28;;
76063;SDS011;64762;52.006;8.424;2023-02-28T12:39:41;3.28;;;1.23;;
76063;SDS011;64762;52.006;8.424;2023-02-28T12:42:30;10.65;;;2.63;;
76063;SDS011;64762;52.006;8.424;2023-02-28T12:45:01;5.25;;;1.77;;
76063;SDS011;64762;52.006;8.424;2023-02-28T12:47:28;3.90;;;1.50;;
76063;SDS011;64762;52.006;8.424;2023-02-28T12:50:16;4.38;;;1.70;;
76063;SDS011;64762;52.006;8.424;2023-02-28T12:57:12;4.32;;;1.80;;
76063;SDS011;64762;52.006;8.424;2023-02-28T13:06:04;7.13;;;2.90;;
76063;SDS011;64762;52.006;8.424;2023-02-28T13:08:39;4.35;;;1.95;;
76063;SDS011;64762;52.006;8.424;2023-02-28T13:19:45;6.53;;;2.10;;
76063;SDS011;64762;52.006;8.424;2023-02-28T13:28:00;5.38;;;2.00;;
76063;SDS011;64762;52.006;8.424;2023-02-28T13:33:25;6.07;;;2.40;;
76063;SDS011;64762;52.006;8.424;2023-02-28T13:38:39;11.23;;;2.60;;
76063;SDS011;64762;52.006;8.424;2023-02-28T13:44:22;4.95;;;1.88;;
76063;SDS011;64762;52.006;8.424;2023-02-28T13:51:48;6.78;;;2.25;;
76063;SDS011;64762;52.006;8.424;2023-02-28T13:59:46;5.75;;;2.13;;
76063;SDS011;64762;52.006;8.424;2023-02-28T14:07:48;6.20;;;1.80;;
76063;SDS011;64762;52.006;8.424;2023-02-28T14:10:25;4.75;;;1.77;;
76063;SDS011;64762;52.006;8.424;2023-02-28T14:15:37;5.47;;;2.20;;
76063;SDS011;64762;52.006;8.424;2023-02-28T14:18:05;3.55;;;1.70;;
76063;SDS011;64762;52.006;8.424;2023-02-28T14:20:45;5.60;;;1.77;;
76063;SDS011;64762;52.006;8.424;2023-02-28T14:23:16;6.88;;;2.17;;
76063;SDS011;64762;52.006;8.424;2023-02-28T14:26:10;4.53;;;2.00;;
76063;SDS011;64762;52.006;8.424;2023-02-28T14:31:39;5.07;;;2.17;;
76063;SDS011;64762;52.006;8.424;2023-02-28T14:37:29;4.75;;;2.10;;
76063;SDS011;64762;52.006;8.424;2023-02-28T14:39:58;7.68;;;2.33;;
76063;SDS011;64762;52.006;8.424;2023-02-28T14:42:32;5.30;;;2.22;;
76063;SDS011;64762;52.006;8.424;2023-02-28T14:44:59;6.45;;;2.30;;
76063;SDS011;64762;52.006;8.424;2023-02-28T14:47:27;4.60;;;2.28;;
76063;SDS011;64762;52.006;8.424;2023-02-28T14:49:55;5.93;;;2.45;;
76063;SDS011;64762;52.006;8.424;2023-02-28T14:52:26;4.60;;;2.10;;
76063;SDS011;64762;52.006;8.424;2023-02-28T14:54:58;5.32;;;2.42;;
76063;SDS011;64762;52.006;8.424;2023-02-28T14:57:33;8.35;;;2.13;;
76063;SDS011;64762;52.006;8.424;2023-02-28T15:00:00;5.45;;;2.10;;
76063;SDS011;64762;52.006;8.424;2023-02-28T15:02:29;7.47;;;3.00;;
76063;SDS011;64762;52.006;8.424;2023-02-28T15:04:58;5.85;;;2.28;;
76063;SDS011;64762;52.006;8.424;2023-02-28T15:07:25;4.50;;;2.25;;
76063;SDS011;64762;52.006;8.424;2023-02-28T15:12:41;5.53;;;2.03;;
76063;SDS011;64762;52.006;8.424;2023-02-28T15:15:21;7.22;;;2.47;;
76063;SDS011;64762;52.006;8.424;2023-02-28T15:17:49;6.32;;;2.35;;
76063;SDS011;64762;52.006;8.424;2023-02-28T15:20:15;4.72;;;1.88;;
76063;SDS011;64762;52.006;8.424;2023-02-28T15:22:43;6.22;;;1.95;;
76063;SDS011;64762;52.006;8.424;2023-02-28T15:25:10;5.88;;;2.25;;
76063;SDS011;64762;52.006;8.424;2023-02-28T15:27:41;6.57;;;2.58;;
76063;SDS011;64762;52.006;8.424;2023-02-28T15:30:14;6.78;;;2.85;;
76063;SDS011;64762;52.006;8.424;2023-02-28T15:32:42;7.22;;;3.20;;
76063;SDS011;64762;52.006;8.424;2023-02-28T15:35:27;8.00;;;3.77;;
76063;SDS011;64762;52.006;8.424;2023-02-28T15:37:55;8.10;;;2.90;;
76063;SDS011;64762;52.006;8.424;2023-02-28T15:40:43;8.43;;;3.05;;
76063;SDS011;64762;52.006;8.424;2023-02-28T15:43:23;8.07;;;2.42;;
76063;SDS011;64762;52.006;8.424;2023-02-28T15:46:02;8.13;;;3.40;;
76063;SDS011;64762;52.006;8.424;2023-02-28T15:48:31;5.15;;;2.92;;
76063;SDS011;64762;52.006;8.424;2023-02-28T15:53:45;4.43;;;2.30;;
76063;SDS011;64762;52.006;8.424;2023-02-28T15:58:46;5.47;;;2.38;;
76063;SDS011;64762;52.006;8.424;2023-02-28T16:03:51;4.55;;;2.47;;
76063;SDS011;64762;52.006;8.424;2023-02-28T16:09:08;5.55;;;2.20;;
76063;SDS011;64762;52.006;8.424;2023-02-28T16:11:36;7.93;;;2.30;;
76063;SDS011;64762;52.006;8.424;2023-02-28T16:14:14;7.43;;;2.63;;
76063;SDS011;64762;52.006;8.424;2023-02-28T16:16:43;5.00;;;2.92;;
76063;SDS011;64762;52.006;8.424;2023-02-28T16:19:10;6.20;;;2.65;;
76063;SDS011;64762;52.006;8.424;2023-02-28T16:21:35;7.45;;;2.58;;
76063;SDS011;64762;52.006;8.424;2023-02-28T16:24:01;6.17;;;2.50;;
76063;SDS011;64762;52.006;8.424;2023-02-28T16:26:26;6.97;;;2.50;;
76063;SDS011;64762;52.006;8.424;2023-02-28T16:28:53;7.25;;;2.55;;
76063;SDS011;64762;52.006;8.424;2023-02-28T16:31:18;6.88;;;2.90;;
76063;SDS011;64762;52.006;8.424;2023-02-28T16:33:45;5.43;;;2.60;;
76063;SDS011;64762;52.006;8.424;2023-02-28T16:36:15;6.35;;;2.55;;
76063;SDS011;64762;52.006;8.424;2023-02-28T16:38:41;7.20;;;2.83;;
76063;SDS011;64762;52.006;8.424;2023-02-28T16:41:07;6.10;;;2.70;;
76063;SDS011;64762;52.006;8.424;2023-02-28T16:43:43;6.97;;;2.90;;
76063;SDS011;64762;52.006;8.424;2023-02-28T16:46:13;5.60;;;2.88;;
76063;SDS011;64762;52.006;8.424;2023-02-28T16:48:39;12.45;;;4.28;;
76063;SDS011;64762;52.006;8.424;2023-02-28T16:51:05;7.15;;;3.10;;
76063;SDS011;64762;52.006;8.424;2023-02-28T16:53:33;5.00;;;2.78;;
76063;SDS011;64762;52.006;8.424;2023-02-28T16:55:59;7.75;;;2.83;;
76063;SDS011;64762;52.006;8.424;2023-02-28T16:58:27;5.65;;;2.75;;
76063;SDS011;64762;52.006;8.424;2023-02-28T17:00:52;7.57;;;3.58;;
76063;SDS011;64762;52.006;8.424;2023-02-28T17:03:20;7.70;;;4.07;;
76063;SDS011;64762;52.006;8.424;2023-02-28T17:05:47;9.18;;;3.28;;
76063;SDS011;64762;52.006;8.424;2023-02-28T17:08:13;9.47;;;3.40;;
76063;SDS011;64762;52.006;8.424;2023-02-28T17:10:38;6.32;;;2.92;;
76063;SDS011;64762;52.006;8.424;2023-02-28T17:13:03;6.73;;;3.47;;
76063;SDS011;64762;52.006;8.424;2023-02-28T17:15:29;10.57;;;3.93;;
76063;SDS011;64762;52.006;8.424;2023-02-28T17:17:55;18.27;;;7.18;;
76063;SDS011;64762;52.006;8.424;2023-02-28T17:20:21;16.33;;;6.40;;